sensor_id;sensor_type;location;lat;lon;timestamp;noise_LAeq;noise_LA_min;noise_LA_max;noise_LA01;noise_LA95
64393;Laerm;50712;49.506;10.400;2023-01-24T00:00:10;29.92;28.24;36.97;;
64393;Laerm;50712;49.506;10.400;2023-01-24T00:00:41;31.80;27.90;46.66;;
64393;Laerm;50712;49.506;10.400;2023-01-24T00:01:12;29.19;27.76;31.24;;
64393;Laerm;50712;49.506;10.400;2023-01-24T00:01:42;29.37;27.95;33.74;;
64393;Laerm;50712;49.506;10.400;2023-01-24T00:02:13;29.43;28.04;32.18;;
64393;Laerm;50712;49.506;10.400;2023-01-24T00:02:43;29.47;27.82;35.25;;
64393;Laerm;50712;49.506;10.400;2023-01-24T00:03:13;30.24;27.77;33.71;;
64393;Laerm;50712;49.506;10.400;2023-01-24T00:03:44;29.16;27.75;30.80;;
64393;Laerm;50712;49.506;10.400;2023-01-24T00:04:14;29.22;27.66;31.60;;
64393;Laerm;50712;49.506;10.400;2023-01-24T00:04:44;29.65;27.86;40.02;;
64393;Laerm;50712;49.506;10.400;2023-01-24T00:05:16;29.19;27.36;32.13;;
64393;Laerm;50712;49.506;10.400;2023-01-24T00:05:47;29.14;27.86;34.85;;
64393;Laerm;50712;49.506;10.400;2023-01-24T00:06:19;29.65;27.93;35.94;;
64393;Laerm;50712;49.506;10.400;2023-01-24T00:06:49;29.54;28.12;36.92;;
64393;Laerm;50712;49.506;10.400;2023-01-24T00:07:19;29.85;28.06;38.65;;
64393;Laerm;50712;49.506;10.400;2023-01-24T00:07:50;31.24;28.23;35.51;;
64393;Laerm;50712;49.506;10.400;2023-01-24T00:08:52;29.35;27.99;33.33;;
64393;Laerm;50712;49.506;10.400;2023-01-24T00:09:23;29.25;27.56;38.22;;
64393;Laerm;50712;49.506;10.400;2023-01-24T00:09:54;30.04;27.93;33.85;;
64393;Laerm;50712;49.506;10.400;2023-01-24T00:10:24;29.66;28.23;33.71;;
64393;Laerm;50712;49.506;10.400;2023-01-24T00:10:59;29.94;28.03;42.75;;
64393;Laerm;50712;49.506;10.400;2023-01-24T00:11:30;32.34;28.26;49.13;;
64393;Laerm;50712;49.506;10.400;2023-01-24T00:12:00;29.32;27.83;32.87;;
64393;Laerm;50712;49.506;10.400;2023-01-24T00:12:31;30.23;27.99;33.59;;
64393;Laerm;50712;49.506;10.400;2023-01-24T00:13:01;29.02;27.58;30.82;;
64393;Laerm;50712;49.506;10.400;2023-01-24T00:13:33;29.48;27.61;41.49;;
64393;Laerm;50712;49.506;10.400;2023-01-24T00:14:04;29.69;27.51;32.22;;
64393;Laerm;50712;49.506;10.400;2023-01-24T00:14:34;29.46;27.84;32.55;;
64393;Laerm;50712;49.506;10.400;2023-01-24T00:15:06;29.74;27.91;37.61;;
64393;Laerm;50712;49.506;10.400;2023-01-24T00:15:37;29.42;27.90;35.23;;
64393;Laerm;50712;49.506;10.400;2023-01-24T00:16:16;30.56;27.97;39.47;;
64393;Laerm;50712;49.506;10.400;2023-01-24T00:16:47;30.31;28.46;34.90;;
64393;Laerm;50712;49.506;10.400;2023-01-24T00:17:17;32.13;27.63;49.23;;
64393;Laerm;50712;49.506;10.400;2023-01-24T00:17:49;30.24;27.92;39.87;;
64393;Laerm;50712;49.506;10.400;2023-01-24T00:18:19;33.96;28.22;47.02;;
64393;Laerm;50712;49.506;10.400;2023-01-24T00:18:50;30.92;28.50;39.66;;
64393;Laerm;50712;49.506;10.400;2023-01-24T00:19:21;30.53;28.44;42.66;;
64393;Laerm;50712;49.506;10.400;2023-01-24T00:19:51;29.42;27.68;31.07;;
64393;Laerm;50712;49.506;10.400;2023-01-24T00:20:21;29.29;27.77;33.41;;
64393;Laerm;50712;49.506;10.400;2023-01-24T00:20:59;30.27;27.97;45.55;;
64393;Laerm;50712;49.506;10.400;2023-01-24T00:21:30;30.24;28.15;33.95;;
64393;Laerm;50712;49.506;10.400;2023-01-24T00:22:03;30.05;28.23;39.36;;
64393;Laerm;50712;49.506;10.400;2023-01-24T00:22:34;29.47;27.98;33.22;;
64393;Laerm;50712;49.506;10.400;2023-01-24T00:23:04;29.25;27.91;30.76;;
64393;Laerm;50712;49.506;10.400;2023-01-24T00:23:42;29.57;27.80;35.14;;
64393;Laerm;50712;49.506;10.400;2023-01-24T00:24:12;48.93;29.29;61.07;;
64393;Laerm;50712;49.506;10.400;2023-01-24T00:24:43;51.26;38.99;61.82;;
64393;Laerm;50712;49.506;10.400;2023-01-24T00:25:13;46.64;34.90;57.45;;
64393;Laerm;50712;49.506;10.400;2023-01-24T00:25:44;44.46;31.27;55.19;;
64393;Laerm;50712;49.506;10.400;2023-01-24T00:26:15;35.71;29.78;42.96;;
64393;Laerm;50712;49.506;10.400;2023-01-24T00:26:47;31.36;28.20;39.07;;
64393;Laerm;50712;49.506;10.400;2023-01-24T00:27:18;30.25;28.44;33.49;;
64393;Laerm;50712;49.506;10.400;2023-01-24T00:27:48;30.15;28.29;32.67;;
64393;Laerm;50712;49.506;10.400;2023-01-24T00:28:19;30.36;28.12;35.81;;
64393;Laerm;50712;49.506;10.400;2023-01-24T00:28:49;41.88;28.83;58.10;;
64393;Laerm;50712;49.506;10.400;2023-01-24T00:29:20;50.15;37.85;62.27;;
64393;Laerm;50712;49.506;10.400;2023-01-24T00:29:50;46.35;33.79;57.34;;
64393;Laerm;50712;49.506;10.400;2023-01-24T00:30:21;42.35;33.38;52.73;;
64393;Laerm;50712;49.506;10.400;2023-01-24T00:30:51;36.18;29.94;46.33;;
64393;Laerm;50712;49.506;10.400;2023-01-24T00:31:21;31.48;28.47;37.58;;
64393;Laerm;50712;49.506;10.400;2023-01-24T00:31:52;29.77;28.12;32.01;;
64393;Laerm;50712;49.506;10.400;2023-01-24T00:32:22;34.85;28.44;54.03;;
64393;Laerm;50712;49.506;10.400;2023-01-24T00:32:52;30.88;28.30;43.38;;
64393;Laerm;50712;49.506;10.400;2023-01-24T00:33:23;29.88;28.10;32.56;;
64393;Laerm;50712;49.506;10.400;2023-01-24T00:33:53;29.97;28.30;37.23;;
64393;Laerm;50712;49.506;10.400;2023-01-24T00:34:24;30.07;28.43;36.39;;
64393;Laerm;50712;49.506;10.400;2023-01-24T00:34:54;29.63;28.16;32.80;;
64393;Laerm;50712;49.506;10.400;2023-01-24T00:35:24;31.37;28.49;45.03;;
64393;Laerm;50712;49.506;10.400;2023-01-24T00:36:25;32.04;28.74;43.47;;
64393;Laerm;50712;49.506;10.400;2023-01-24T00:36:55;31.96;28.67;48.34;;
64393;Laerm;50712;49.506;10.400;2023-01-24T00:37:56;29.90;28.35;32.09;;
64393;Laerm;50712;49.506;10.400;2023-01-24T00:38:28;32.18;28.22;48.45;;
64393;Laerm;50712;49.506;10.400;2023-01-24T00:39:00;29.87;27.88;43.17;;
64393;Laerm;50712;49.506;10.400;2023-01-24T00:39:31;29.70;28.01;36.21;;
64393;Laerm;50712;49.506;10.400;2023-01-24T00:40:01;30.15;28.27;33.51;;
64393;Laerm;50712;49.506;10.400;2023-01-24T00:40:31;30.26;28.47;44.02;;
64393;Laerm;50712;49.506;10.400;2023-01-24T00:41:02;29.61;28.24;32.04;;
64393;Laerm;50712;49.506;10.400;2023-01-24T00:41:33;29.63;28.10;32.19;;
64393;Laerm;50712;49.506;10.400;2023-01-24T00:42:04;30.04;28.01;39.28;;
64393;Laerm;50712;49.506;10.400;2023-01-24T00:42:34;32.00;28.18;50.45;;
64393;Laerm;50712;49.506;10.400;2023-01-24T00:43:05;30.47;27.98;43.22;;
64393;Laerm;50712;49.506;10.400;2023-01-24T00:43:35;29.81;28.09;33.26;;
64393;Laerm;50712;49.506;10.400;2023-01-24T00:44:06;31.54;28.57;43.95;;
64393;Laerm;50712;49.506;10.400;2023-01-24T00:44:36;31.72;29.23;39.80;;
64393;Laerm;50712;49.506;10.400;2023-01-24T00:45:07;31.53;28.78;46.36;;
64393;Laerm;50712;49.506;10.400;2023-01-24T00:45:38;32.64;28.37;49.00;;
64393;Laerm;50712;49.506;10.400;2023-01-24T00:46:09;30.50;28.44;40.71;;
64393;Laerm;50712;49.506;10.400;2023-01-24T00:46:39;29.73;28.17;32.24;;
64393;Laerm;50712;49.506;10.400;2023-01-24T00:47:10;30.10;28.58;35.65;;
64393;Laerm;50712;49.506;10.400;2023-01-24T00:47:41;29.88;27.65;37.29;;
64393;Laerm;50712;49.506;10.400;2023-01-24T00:48:11;29.71;28.15;34.06;;
64393;Laerm;50712;49.506;10.400;2023-01-24T00:48:43;29.36;28.01;31.82;;
64393;Laerm;50712;49.506;10.400;2023-01-24T00:49:13;30.07;27.81;33.04;;
64393;Laerm;50712;49.506;10.400;2023-01-24T00:49:44;29.78;28.27;32.09;;
64393;Laerm;50712;49.506;10.400;2023-01-24T00:50:14;29.54;28.03;32.10;;
64393;Laerm;50712;49.506;10.400;2023-01-24T00:50:45;29.73;27.78;33.71;;
64393;Laerm;50712;49.506;10.400;2023-01-24T00:51:15;29.61;27.92;31.90;;
64393;Laerm;50712;49.506;10.400;2023-01-24T00:52:16;30.34;28.26;41.75;;
64393;Laerm;50712;49.506;10.400;2023-01-24T00:52:46;33.78;28.89;44.31;;
64393;Laerm;50712;49.506;10.400;2023-01-24T00:53:17;31.51;28.33;45.00;;
64393;Laerm;50712;49.506;10.400;2023-01-24T00:53:49;30.73;28.43;34.27;;
64393;Laerm;50712;49.506;10.400;2023-01-24T00:54:20;30.87;28.78;41.47;;
64393;Laerm;50712;49.506;10.400;2023-01-24T00:54:50;32.99;28.71;50.87;;
64393;Laerm;50712;49.506;10.400;2023-01-24T00:55:21;32.92;28.60;50.82;;
64393;Laerm;50712;49.506;10.400;2023-01-24T00:55:52;29.99;28.35;32.78;;
64393;Laerm;50712;49.506;10.400;2023-01-24T00:56:55;30.60;28.07;38.29;;
64393;Laerm;50712;49.506;10.400;2023-01-24T00:57:25;30.13;28.05;41.56;;
64393;Laerm;50712;49.506;10.400;2023-01-24T00:57:56;31.00;28.18;44.19;;
64393;Laerm;50712;49.506;10.400;2023-01-24T00:58:26;30.98;28.65;42.95;;
64393;Laerm;50712;49.506;10.400;2023-01-24T00:58:56;30.15;28.19;36.18;;
64393;Laerm;50712;49.506;10.400;2023-01-24T00:59:27;30.95;28.30;41.62;;
64393;Laerm;50712;49.506;10.400;2023-01-24T00:59:57;31.40;28.45;41.19;;
64393;Laerm;50712;49.506;10.400;2023-01-24T01:00:58;30.39;28.49;35.12;;
64393;Laerm;50712;49.506;10.400;2023-01-24T01:01:30;30.10;28.78;32.26;;
64393;Laerm;50712;49.506;10.400;2023-01-24T01:02:00;30.55;28.39;41.87;;
64393;Laerm;50712;49.506;10.400;2023-01-24T01:02:31;30.25;28.35;38.49;;
64393;Laerm;50712;49.506;10.400;2023-01-24T01:03:01;31.56;28.30;42.04;;
64393;Laerm;50712;49.506;10.400;2023-01-24T01:03:31;30.83;28.60;38.33;;
64393;Laerm;50712;49.506;10.400;2023-01-24T01:04:02;31.90;28.73;44.93;;
64393;Laerm;50712;49.506;10.400;2023-01-24T01:04:32;29.80;28.26;35.59;;
64393;Laerm;50712;49.506;10.400;2023-01-24T01:05:03;31.14;28.48;45.48;;
64393;Laerm;50712;49.506;10.400;2023-01-24T01:05:34;32.56;28.44;43.89;;
64393;Laerm;50712;49.506;10.400;2023-01-24T01:06:07;30.76;28.66;39.61;;
64393;Laerm;50712;49.506;10.400;2023-01-24T01:06:39;30.41;28.39;40.70;;
64393;Laerm;50712;49.506;10.400;2023-01-24T01:07:09;36.04;28.47;59.04;;
64393;Laerm;50712;49.506;10.400;2023-01-24T01:07:40;31.87;28.92;44.79;;
64393;Laerm;50712;49.506;10.400;2023-01-24T01:08:11;31.40;28.96;45.71;;
64393;Laerm;50712;49.506;10.400;2023-01-24T01:08:42;36.09;29.24;53.90;;
64393;Laerm;50712;49.506;10.400;2023-01-24T01:09:12;32.30;29.26;44.59;;
64393;Laerm;50712;49.506;10.400;2023-01-24T01:09:43;30.81;28.63;35.25;;
64393;Laerm;50712;49.506;10.400;2023-01-24T01:10:46;29.68;27.95;35.47;;
64393;Laerm;50712;49.506;10.400;2023-01-24T01:11:17;30.91;28.66;39.43;;
64393;Laerm;50712;49.506;10.400;2023-01-24T01:11:47;30.51;28.81;33.15;;
64393;Laerm;50712;49.506;10.400;2023-01-24T01:12:18;31.41;28.60;34.51;;
64393;Laerm;50712;49.506;10.400;2023-01-24T01:12:48;30.58;27.91;42.04;;
64393;Laerm;50712;49.506;10.400;2023-01-24T01:13:49;31.75;29.27;42.56;;
64393;Laerm;50712;49.506;10.400;2023-01-24T01:14:20;36.63;28.72;51.49;;
64393;Laerm;50712;49.506;10.400;2023-01-24T01:14:50;33.22;29.80;46.04;;
64393;Laerm;50712;49.506;10.400;2023-01-24T01:15:20;31.08;27.74;38.16;;
64393;Laerm;50712;49.506;10.400;2023-01-24T01:15:51;30.42;28.34;46.44;;
64393;Laerm;50712;49.506;10.400;2023-01-24T01:16:22;31.56;28.56;37.07;;
64393;Laerm;50712;49.506;10.400;2023-01-24T01:16:53;32.60;28.47;49.27;;
64393;Laerm;50712;49.506;10.400;2023-01-24T01:17:23;31.78;29.12;45.24;;
64393;Laerm;50712;49.506;10.400;2023-01-24T01:17:53;30.43;27.96;39.49;;
64393;Laerm;50712;49.506;10.400;2023-01-24T01:18:24;29.97;27.95;38.43;;
64393;Laerm;50712;49.506;10.400;2023-01-24T01:18:54;31.18;28.45;42.00;;
64393;Laerm;50712;49.506;10.400;2023-01-24T01:19:25;38.40;28.43;61.44;;
64393;Laerm;50712;49.506;10.400;2023-01-24T01:20:26;33.59;28.82;50.76;;
64393;Laerm;50712;49.506;10.400;2023-01-24T01:20:57;30.09;28.46;35.91;;
64393;Laerm;50712;49.506;10.400;2023-01-24T01:21:57;30.45;28.34;36.40;;
64393;Laerm;50712;49.506;10.400;2023-01-24T01:22:29;31.52;28.72;39.69;;
64393;Laerm;50712;49.506;10.400;2023-01-24T01:23:30;34.03;28.18;53.20;;
64393;Laerm;50712;49.506;10.400;2023-01-24T01:24:00;30.39;28.70;37.05;;
64393;Laerm;50712;49.506;10.400;2023-01-24T01:24:31;32.97;28.56;45.92;;
64393;Laerm;50712;49.506;10.400;2023-01-24T01:25:01;30.09;28.11;37.40;;
64393;Laerm;50712;49.506;10.400;2023-01-24T01:25:32;33.67;29.44;48.27;;
64393;Laerm;50712;49.506;10.400;2023-01-24T01:26:05;34.03;28.93;49.59;;
64393;Laerm;50712;49.506;10.400;2023-01-24T01:26:36;30.19;28.32;37.58;;
64393;Laerm;50712;49.506;10.400;2023-01-24T01:27:07;31.35;28.24;42.50;;
64393;Laerm;50712;49.506;10.400;2023-01-24T01:27:37;32.08;28.64;46.24;;
64393;Laerm;50712;49.506;10.400;2023-01-24T01:28:07;30.21;28.52;33.90;;
64393;Laerm;50712;49.506;10.400;2023-01-24T01:28:38;30.13;28.25;43.29;;
64393;Laerm;50712;49.506;10.400;2023-01-24T01:29:08;30.44;28.24;42.58;;
64393;Laerm;50712;49.506;10.400;2023-01-24T01:29:39;31.10;28.40;46.60;;
64393;Laerm;50712;49.506;10.400;2023-01-24T01:30:09;35.02;28.20;46.38;;
64393;Laerm;50712;49.506;10.400;2023-01-24T01:30:40;34.35;29.51;43.09;;
64393;Laerm;50712;49.506;10.400;2023-01-24T01:31:10;32.45;28.80;41.74;;
64393;Laerm;50712;49.506;10.400;2023-01-24T01:31:41;31.34;28.81;36.30;;
64393;Laerm;50712;49.506;10.400;2023-01-24T01:32:11;31.70;28.77;44.06;;
64393;Laerm;50712;49.506;10.400;2023-01-24T01:32:42;30.14;28.33;35.43;;
64393;Laerm;50712;49.506;10.400;2023-01-24T01:33:12;29.57;28.11;32.20;;
64393;Laerm;50712;49.506;10.400;2023-01-24T01:33:43;30.41;27.84;40.41;;
64393;Laerm;50712;49.506;10.400;2023-01-24T01:34:14;29.98;28.50;36.21;;
64393;Laerm;50712;49.506;10.400;2023-01-24T01:34:44;29.92;28.27;39.03;;
64393;Laerm;50712;49.506;10.400;2023-01-24T01:35:14;30.40;28.33;33.95;;
64393;Laerm;50712;49.506;10.400;2023-01-24T01:35:46;29.56;27.78;31.56;;
64393;Laerm;50712;49.506;10.400;2023-01-24T01:36:16;29.56;27.78;31.56;;
64393;Laerm;50712;49.506;10.400;2023-01-24T01:36:47;30.60;28.66;33.35;;
64393;Laerm;50712;49.506;10.400;2023-01-24T01:37:17;30.23;27.83;33.81;;
64393;Laerm;50712;49.506;10.400;2023-01-24T01:37:48;30.44;27.98;40.57;;
64393;Laerm;50712;49.506;10.400;2023-01-24T01:38:19;32.97;28.46;46.68;;
64393;Laerm;50712;49.506;10.400;2023-01-24T01:38:49;30.49;28.12;43.97;;
64393;Laerm;50712;49.506;10.400;2023-01-24T01:39:20;31.97;28.52;47.43;;
64393;Laerm;50712;49.506;10.400;2023-01-24T01:39:50;32.31;28.61;50.06;;
64393;Laerm;50712;49.506;10.400;2023-01-24T01:40:21;30.42;28.81;35.15;;
64393;Laerm;50712;49.506;10.400;2023-01-24T01:40:51;30.62;28.35;39.66;;
64393;Laerm;50712;49.506;10.400;2023-01-24T01:41:22;32.91;28.35;52.86;;
64393;Laerm;50712;49.506;10.400;2023-01-24T01:41:53;30.44;28.57;37.66;;
64393;Laerm;50712;49.506;10.400;2023-01-24T01:42:23;30.27;28.41;41.69;;
64393;Laerm;50712;49.506;10.400;2023-01-24T01:42:55;30.09;28.39;33.91;;
64393;Laerm;50712;49.506;10.400;2023-01-24T01:43:29;32.46;28.67;48.37;;
64393;Laerm;50712;49.506;10.400;2023-01-24T01:44:18;31.39;28.13;41.93;;
64393;Laerm;50712;49.506;10.400;2023-01-24T01:46:18;29.99;27.86;41.56;;
64393;Laerm;50712;49.506;10.400;2023-01-24T01:46:51;29.43;27.59;31.24;;
64393;Laerm;50712;49.506;10.400;2023-01-24T01:47:27;30.45;28.18;41.28;;
64393;Laerm;50712;49.506;10.400;2023-01-24T01:48:00;30.48;27.93;43.15;;
64393;Laerm;50712;49.506;10.400;2023-01-24T01:48:42;31.79;28.09;48.10;;
64393;Laerm;50712;49.506;10.400;2023-01-24T01:49:26;33.11;28.41;49.39;;
64393;Laerm;50712;49.506;10.400;2023-01-24T01:50:01;31.50;28.33;48.32;;
64393;Laerm;50712;49.506;10.400;2023-01-24T01:50:37;33.83;28.87;53.53;;
64393;Laerm;50712;49.506;10.400;2023-01-24T01:51:43;33.32;29.10;46.70;;
64393;Laerm;50712;49.506;10.400;2023-01-24T01:52:16;32.15;28.39;47.31;;
64393;Laerm;50712;49.506;10.400;2023-01-24T01:52:47;30.64;28.26;38.35;;
64393;Laerm;50712;49.506;10.400;2023-01-24T01:53:59;30.26;27.91;39.43;;
64393;Laerm;50712;49.506;10.400;2023-01-24T01:54:34;30.29;28.42;37.51;;
64393;Laerm;50712;49.506;10.400;2023-01-24T01:55:09;31.75;28.37;47.13;;
64393;Laerm;50712;49.506;10.400;2023-01-24T01:55:46;31.35;28.26;47.80;;
64393;Laerm;50712;49.506;10.400;2023-01-24T01:56:26;31.16;28.41;46.45;;
64393;Laerm;50712;49.506;10.400;2023-01-24T01:57:04;30.76;27.74;46.80;;
64393;Laerm;50712;49.506;10.400;2023-01-24T01:57:36;30.15;28.26;36.92;;
64393;Laerm;50712;49.506;10.400;2023-01-24T01:58:07;30.71;28.41;36.62;;
64393;Laerm;50712;49.506;10.400;2023-01-24T01:58:39;30.46;28.31;37.00;;
64393;Laerm;50712;49.506;10.400;2023-01-24T01:59:20;30.20;27.94;35.41;;
64393;Laerm;50712;49.506;10.400;2023-01-24T01:59:59;32.70;28.49;49.19;;
64393;Laerm;50712;49.506;10.400;2023-01-24T02:00:31;30.28;28.21;33.51;;
64393;Laerm;50712;49.506;10.400;2023-01-24T02:01:02;31.71;28.69;43.47;;
64393;Laerm;50712;49.506;10.400;2023-01-24T02:02:06;29.40;28.07;37.28;;
64393;Laerm;50712;49.506;10.400;2023-01-24T02:02:40;30.00;27.90;32.83;;
64393;Laerm;50712;49.506;10.400;2023-01-24T02:03:14;30.73;28.40;37.00;;
64393;Laerm;50712;49.506;10.400;2023-01-24T02:04:08;31.77;28.71;45.98;;
64393;Laerm;50712;49.506;10.400;2023-01-24T02:04:45;30.35;28.10;42.16;;
64393;Laerm;50712;49.506;10.400;2023-01-24T02:05:19;30.11;28.54;33.59;;
64393;Laerm;50712;49.506;10.400;2023-01-24T02:05:50;35.80;28.62;45.23;;
64393;Laerm;50712;49.506;10.400;2023-01-24T02:07:18;33.48;28.73;41.45;;
64393;Laerm;50712;49.506;10.400;2023-01-24T02:07:59;30.23;28.22;38.50;;
64393;Laerm;50712;49.506;10.400;2023-01-24T02:08:31;29.66;27.99;32.59;;
64393;Laerm;50712;49.506;10.400;2023-01-24T02:09:04;29.69;28.09;38.89;;
64393;Laerm;50712;49.506;10.400;2023-01-24T02:09:39;29.36;27.84;30.87;;
64393;Laerm;50712;49.506;10.400;2023-01-24T02:10:11;29.93;27.78;36.22;;
64393;Laerm;50712;49.506;10.400;2023-01-24T02:10:42;30.03;28.12;32.96;;
64393;Laerm;50712;49.506;10.400;2023-01-24T02:12:13;33.99;28.56;49.04;;
64393;Laerm;50712;49.506;10.400;2023-01-24T02:12:47;32.42;28.45;48.26;;
64393;Laerm;50712;49.506;10.400;2023-01-24T02:13:18;35.51;29.05;51.24;;
64393;Laerm;50712;49.506;10.400;2023-01-24T02:14:39;31.60;28.44;43.48;;
64393;Laerm;50712;49.506;10.400;2023-01-24T02:16:17;30.38;28.23;39.39;;
64393;Laerm;50712;49.506;10.400;2023-01-24T02:16:49;30.74;28.92;33.88;;
64393;Laerm;50712;49.506;10.400;2023-01-24T02:17:20;30.42;28.58;39.20;;
64393;Laerm;50712;49.506;10.400;2023-01-24T02:17:51;30.45;28.67;37.00;;
64393;Laerm;50712;49.506;10.400;2023-01-24T02:18:21;30.30;28.55;37.09;;
64393;Laerm;50712;49.506;10.400;2023-01-24T02:18:52;32.06;29.07;46.18;;
64393;Laerm;50712;49.506;10.400;2023-01-24T02:20:20;31.42;28.06;42.75;;
64393;Laerm;50712;49.506;10.400;2023-01-24T02:20:54;30.68;28.20;43.34;;
64393;Laerm;50712;49.506;10.400;2023-01-24T02:21:25;31.23;28.72;37.34;;
64393;Laerm;50712;49.506;10.400;2023-01-24T02:22:00;30.38;28.21;34.43;;
64393;Laerm;50712;49.506;10.400;2023-01-24T02:23:05;30.41;28.48;33.59;;
64393;Laerm;50712;49.506;10.400;2023-01-24T02:24:02;30.55;28.67;35.57;;
64393;Laerm;50712;49.506;10.400;2023-01-24T02:24:39;32.20;28.95;51.62;;
64393;Laerm;50712;49.506;10.400;2023-01-24T02:25:25;30.01;28.61;31.79;;
64393;Laerm;50712;49.506;10.400;2023-01-24T02:26:32;31.53;28.62;36.76;;
64393;Laerm;50712;49.506;10.400;2023-01-24T02:27:03;31.43;28.94;36.28;;
64393;Laerm;50712;49.506;10.400;2023-01-24T02:27:34;30.50;28.98;35.14;;
64393;Laerm;50712;49.506;10.400;2023-01-24T02:28:36;30.19;28.70;35.79;;
64393;Laerm;50712;49.506;10.400;2023-01-24T02:29:10;31.76;29.03;38.79;;
64393;Laerm;50712;49.506;10.400;2023-01-24T02:29:42;31.27;28.17;45.65;;
64393;Laerm;50712;49.506;10.400;2023-01-24T02:30:12;30.93;28.95;34.85;;
64393;Laerm;50712;49.506;10.400;2023-01-24T02:30:43;33.12;29.11;51.32;;
64393;Laerm;50712;49.506;10.400;2023-01-24T02:31:13;31.43;28.75;46.14;;
64393;Laerm;50712;49.506;10.400;2023-01-24T02:31:59;31.24;29.04;41.39;;
64393;Laerm;50712;49.506;10.400;2023-01-24T02:32:30;30.85;28.49;38.66;;
64393;Laerm;50712;49.506;10.400;2023-01-24T02:33:14;30.77;28.93;33.66;;
64393;Laerm;50712;49.506;10.400;2023-01-24T02:33:44;31.04;28.93;36.47;;
64393;Laerm;50712;49.506;10.400;2023-01-24T02:34:15;31.07;28.97;45.43;;
64393;Laerm;50712;49.506;10.400;2023-01-24T02:34:45;31.44;28.42;43.43;;
64393;Laerm;50712;49.506;10.400;2023-01-24T02:35:24;30.37;28.27;39.35;;
64393;Laerm;50712;49.506;10.400;2023-01-24T02:36:25;30.13;28.27;37.77;;
64393;Laerm;50712;49.506;10.400;2023-01-24T02:36:59;31.37;28.78;44.39;;
64393;Laerm;50712;49.506;10.400;2023-01-24T02:37:30;30.68;28.56;39.66;;
64393;Laerm;50712;49.506;10.400;2023-01-24T02:38:04;31.98;28.74;43.15;;
64393;Laerm;50712;49.506;10.400;2023-01-24T02:38:36;32.38;28.84;47.22;;
64393;Laerm;50712;49.506;10.400;2023-01-24T02:39:10;30.08;28.17;39.86;;
64393;Laerm;50712;49.506;10.400;2023-01-24T02:40:04;29.93;28.48;32.69;;
64393;Laerm;50712;49.506;10.400;2023-01-24T02:40:37;30.26;28.40;40.51;;
64393;Laerm;50712;49.506;10.400;2023-01-24T02:41:08;30.17;28.11;42.10;;
64393;Laerm;50712;49.506;10.400;2023-01-24T02:41:52;30.64;27.87;43.34;;
64393;Laerm;50712;49.506;10.400;2023-01-24T02:42:26;30.21;28.18;44.81;;
64393;Laerm;50712;49.506;10.400;2023-01-24T02:43:04;33.63;28.39;49.68;;
64393;Laerm;50712;49.506;10.400;2023-01-24T02:43:41;30.52;28.14;42.49;;
64393;Laerm;50712;49.506;10.400;2023-01-24T02:44:19;30.43;28.43;37.63;;
64393;Laerm;50712;49.506;10.400;2023-01-24T02:45:10;29.84;27.93;36.93;;
64393;Laerm;50712;49.506;10.400;2023-01-24T02:45:44;29.84;27.92;34.49;;
64393;Laerm;50712;49.506;10.400;2023-01-24T02:46:15;30.10;28.10;37.90;;
64393;Laerm;50712;49.506;10.400;2023-01-24T02:46:45;31.36;28.56;41.89;;
64393;Laerm;50712;49.506;10.400;2023-01-24T02:47:16;31.29;28.46;43.11;;
64393;Laerm;50712;49.506;10.400;2023-01-24T02:47:49;29.68;28.13;35.30;;
64393;Laerm;50712;49.506;10.400;2023-01-24T02:48:20;32.65;28.13;55.65;;
64393;Laerm;50712;49.506;10.400;2023-01-24T02:48:51;29.62;28.21;34.41;;
64393;Laerm;50712;49.506;10.400;2023-01-24T02:49:22;29.89;27.89;38.76;;
64393;Laerm;50712;49.506;10.400;2023-01-24T02:49:52;29.89;28.39;34.19;;
64393;Laerm;50712;49.506;10.400;2023-01-24T02:50:25;29.56;28.08;32.72;;
64393;Laerm;50712;49.506;10.400;2023-01-24T02:50:56;30.26;28.74;34.72;;
64393;Laerm;50712;49.506;10.400;2023-01-24T02:51:45;30.05;28.03;41.00;;
64393;Laerm;50712;49.506;10.400;2023-01-24T02:52:34;30.15;28.25;41.76;;
64393;Laerm;50712;49.506;10.400;2023-01-24T02:53:23;30.03;28.11;36.47;;
64393;Laerm;50712;49.506;10.400;2023-01-24T02:54:00;30.00;28.25;36.46;;
64393;Laerm;50712;49.506;10.400;2023-01-24T02:54:30;32.17;28.51;41.85;;
64393;Laerm;50712;49.506;10.400;2023-01-24T02:55:01;30.02;27.92;37.70;;
64393;Laerm;50712;49.506;10.400;2023-01-24T02:55:32;30.32;27.99;43.18;;
64393;Laerm;50712;49.506;10.400;2023-01-24T02:56:04;29.35;27.99;30.83;;
64393;Laerm;50712;49.506;10.400;2023-01-24T02:56:53;29.95;28.11;40.17;;
64393;Laerm;50712;49.506;10.400;2023-01-24T02:57:42;31.06;28.42;44.86;;
64393;Laerm;50712;49.506;10.400;2023-01-24T02:58:31;30.16;28.28;32.68;;
64393;Laerm;50712;49.506;10.400;2023-01-24T02:59:02;29.31;27.91;31.02;;
64393;Laerm;50712;49.506;10.400;2023-01-24T02:59:35;29.69;28.07;37.54;;
64393;Laerm;50712;49.506;10.400;2023-01-24T03:00:06;30.20;28.14;34.89;;
64393;Laerm;50712;49.506;10.400;2023-01-24T03:00:40;30.48;28.63;36.44;;
64393;Laerm;50712;49.506;10.400;2023-01-24T03:01:12;30.03;28.11;38.90;;
64393;Laerm;50712;49.506;10.400;2023-01-24T03:01:45;30.39;28.26;39.77;;
64393;Laerm;50712;49.506;10.400;2023-01-24T03:02:17;29.79;28.24;32.14;;
64393;Laerm;50712;49.506;10.400;2023-01-24T03:02:48;31.17;28.56;42.70;;
64393;Laerm;50712;49.506;10.400;2023-01-24T03:03:18;31.97;29.19;46.92;;
64393;Laerm;50712;49.506;10.400;2023-01-24T03:03:51;30.42;28.22;32.32;;
64393;Laerm;50712;49.506;10.400;2023-01-24T03:04:23;29.93;28.34;32.31;;
64393;Laerm;50712;49.506;10.400;2023-01-24T03:04:54;31.67;28.93;43.39;;
64393;Laerm;50712;49.506;10.400;2023-01-24T03:05:25;30.46;28.56;38.26;;
64393;Laerm;50712;49.506;10.400;2023-01-24T03:06:38;30.76;28.43;41.48;;
64393;Laerm;50712;49.506;10.400;2023-01-24T03:07:09;31.68;28.78;41.41;;
64393;Laerm;50712;49.506;10.400;2023-01-24T03:08:15;31.17;28.24;40.67;;
64393;Laerm;50712;49.506;10.400;2023-01-24T03:08:46;30.32;28.57;32.67;;
64393;Laerm;50712;49.506;10.400;2023-01-24T03:09:26;30.33;28.61;36.77;;
64393;Laerm;50712;49.506;10.400;2023-01-24T03:10:15;30.64;28.51;34.02;;
64393;Laerm;50712;49.506;10.400;2023-01-24T03:10:51;30.06;28.16;34.38;;
64393;Laerm;50712;49.506;10.400;2023-01-24T03:11:22;31.06;28.88;35.37;;
64393;Laerm;50712;49.506;10.400;2023-01-24T03:11:53;31.11;28.49;34.03;;
64393;Laerm;50712;49.506;10.400;2023-01-24T03:12:44;30.90;28.78;35.15;;
64393;Laerm;50712;49.506;10.400;2023-01-24T03:13:33;32.71;29.35;42.33;;
64393;Laerm;50712;49.506;10.400;2023-01-24T03:14:22;34.66;30.44;42.64;;
64393;Laerm;50712;49.506;10.400;2023-01-24T03:15:12;31.36;29.20;39.49;;
64393;Laerm;50712;49.506;10.400;2023-01-24T03:16:01;29.90;27.91;31.89;;
64393;Laerm;50712;49.506;10.400;2023-01-24T03:16:51;30.56;28.36;35.68;;
64393;Laerm;50712;49.506;10.400;2023-01-24T03:17:40;30.31;28.48;35.45;;
64393;Laerm;50712;49.506;10.400;2023-01-24T03:18:29;31.91;28.66;42.25;;